Time;durP1;ratioP1;P1;durP2;ratioP2;P2;SDS_P1;SDS_P2;PMS_P1;PMS_P2;Temp;Humidity;BMP_temperature;BMP_pressure;BME280_temperature;BME280_humidity;BME280_pressure;Samples;Min_cycle;Max_cycle;Signal;HPM_P1;HPM_P2
2022/08/13 00:00:59;;;;;;;7.68;6.45;;;18.70;82.00;;;;;;2097954;28;20111;-70
2022/08/13 00:02:19;;;;;;;8.50;6.10;;;18.70;82.10;;;;;;2099595;28;20051;-70
2022/08/13 00:03:20;;;;;;;8.77;6.20;;;18.70;82.30;;;;;;2107835;28;20038;-70
2022/08/13 00:04:21;;;;;;;7.40;6.50;;;18.70;82.60;;;;;;2108552;28;20545;-70
2022/08/13 00:05:23;;;;;;;7.57;6.10;;;18.60;82.60;;;;;;2107874;28;20063;-70
2022/08/13 00:07:31;;;;;;;7.07;6.38;;;18.60;83.10;;;;;;2105245;28;20040;-69
2022/08/13 00:08:33;;;;;;;7.00;6.10;;;18.60;83.20;;;;;;2105023;28;20032;-70
2022/08/13 00:09:45;;;;;;;6.32;5.72;;;18.60;83.20;;;;;;2106471;28;20113;-70
2022/08/13 00:10:46;;;;;;;6.88;6.10;;;18.50;83.40;;;;;;2105550;28;20027;-69
2022/08/13 00:13:06;;;;;;;6.70;6.05;;;18.50;83.60;;;;;;2106606;28;20024;-70
2022/08/13 00:14:07;;;;;;;8.30;6.43;;;18.50;83.70;;;;;;2107180;28;20032;-71
2022/08/13 00:15:15;;;;;;;7.72;6.25;;;18.50;83.80;;;;;;2097653;28;20071;-71
2022/08/13 00:16:15;;;;;;;6.68;5.80;;;18.50;83.90;;;;;;2105052;28;20038;-69
2022/08/13 00:17:17;;;;;;;8.57;5.70;;;18.50;84.00;;;;;;2105563;28;20031;-71
2022/08/13 00:18:20;;;;;;;7.65;5.78;;;18.50;84.00;;;;;;2105352;28;20036;-72
2022/08/13 00:19:29;;;;;;;6.75;6.15;;;18.50;84.00;;;;;;2105717;28;20417;-71
2022/08/13 00:20:39;;;;;;;5.80;5.30;;;18.40;84.10;;;;;;2107226;28;20039;-71
2022/08/13 00:21:39;;;;;;;6.15;5.53;;;18.40;84.20;;;;;;2091896;28;20037;-71
2022/08/13 00:22:40;;;;;;;7.55;5.35;;;18.40;84.30;;;;;;2096922;28;20358;-70
2022/08/13 00:23:44;;;;;;;6.10;5.57;;;18.40;84.50;;;;;;2108669;28;20031;-70
2022/08/13 00:24:46;;;;;;;6.50;5.63;;;18.40;84.70;;;;;;2098987;28;20534;-71
2022/08/13 00:25:49;;;;;;;6.13;5.40;;;18.40;84.80;;;;;;2108721;28;20030;-71
2022/08/13 00:26:59;;;;;;;7.18;5.70;;;18.40;84.90;;;;;;2109922;28;20024;-70
2022/08/13 00:28:09;;;;;;;6.80;5.53;;;18.40;85.10;;;;;;2106769;28;20070;-70
2022/08/13 00:29:10;;;;;;;6.15;5.55;;;18.30;85.20;;;;;;2104982;28;20028;-70
2022/08/13 00:30:15;;;;;;;6.10;5.50;;;18.30;85.40;;;;;;2096044;28;20036;-71
2022/08/13 00:31:16;;;;;;;7.00;5.60;;;18.30;85.50;;;;;;2104901;28;20020;-71
2022/08/13 00:32:23;;;;;;;6.30;5.35;;;18.30;85.70;;;;;;2105841;28;20163;-71
2022/08/13 00:33:27;;;;;;;6.55;5.68;;;18.20;85.80;;;;;;2104865;28;20024;-71
2022/08/13 00:34:28;;;;;;;6.40;5.80;;;18.20;85.90;;;;;;2106047;28;20020;-71
2022/08/13 00:35:29;;;;;;;6.18;5.55;;;18.20;85.90;;;;;;2105813;28;20024;-71
2022/08/13 00:36:34;;;;;;;8.70;5.90;;;18.20;86.20;;;;;;2106205;28;20055;-70
2022/08/13 00:37:48;;;;;;;6.43;5.82;;;18.20;86.20;;;;;;2106829;28;20027;-70
2022/08/13 00:38:53;;;;;;;6.43;5.65;;;18.20;86.40;;;;;;2107683;28;20028;-71
2022/08/13 00:39:54;;;;;;;8.50;5.60;;;18.20;86.50;;;;;;2106557;28;20091;-69
2022/08/13 00:40:58;;;;;;;6.80;5.43;;;18.10;86.70;;;;;;2107534;28;20028;-71
2022/08/13 00:41:59;;;;;;;5.88;5.38;;;18.10;86.80;;;;;;2099167;28;20028;-70
2022/08/13 00:43:03;;;;;;;5.97;5.47;;;18.10;87.00;;;;;;2105332;28;20070;-70
2022/08/13 00:44:31;;;;;;;5.90;5.38;;;18.00;87.10;;;;;;2106240;28;20024;-70
2022/08/13 00:45:40;;;;;;;5.80;5.30;;;18.10;87.40;;;;;;2073535;28;20033;-71
2022/08/13 00:46:42;;;;;;;6.55;5.63;;;18.00;87.60;;;;;;2098833;28;20067;-70
2022/08/13 00:49:03;;;;;;;6.47;5.38;;;18.00;88.00;;;;;;2094671;28;20029;-70
2022/08/13 00:50:05;;;;;;;6.18;5.57;;;18.00;88.30;;;;;;2113911;28;20047;-71
2022/08/13 00:51:10;;;;;;;6.00;5.38;;;17.90;88.50;;;;;;2106902;28;20619;-71
2022/08/13 00:52:11;;;;;;;6.10;5.50;;;17.90;88.70;;;;;;2108215;28;20496;-71
2022/08/13 00:53:17;;;;;;;6.10;5.50;;;17.90;89.60;;;;;;2107785;28;20668;-71
2022/08/13 00:54:18;;;;;;;5.80;5.20;;;17.90;89.10;;;;;;2106882;28;20020;-70
2022/08/13 00:55:23;;;;;;;5.45;4.95;;;17.90;89.30;;;;;;2102033;28;20031;-72
2022/08/13 00:56:25;;;;;;;6.50;5.45;;;17.90;89.50;;;;;;2103830;28;20516;-72
2022/08/13 00:57:29;;;;;;;5.68;5.10;;;17.90;89.70;;;;;;2106562;28;20030;-71
2022/08/13 00:58:33;;;;;;;6.38;5.40;;;17.90;89.90;;;;;;2106122;28;20008;-71
2022/08/13 00:59:34;;;;;;;6.45;5.47;;;17.90;90.00;;;;;;2106722;28;20024;-71
2022/08/13 01:00:36;;;;;;;5.85;5.25;;;17.90;90.00;;;;;;2105646;28;20024;-72
2022/08/13 01:01:39;;;;;;;6.25;5.15;;;17.90;90.10;;;;;;2105407;28;20028;-70
2022/08/13 01:02:42;;;;;;;5.65;5.10;;;17.80;90.20;;;;;;2106198;28;20663;-70
2022/08/13 01:03:43;;;;;;;5.88;4.70;;;17.80;90.30;;;;;;2105766;28;20368;-71
2022/08/13 01:04:46;;;;;;;5.63;5.10;;;17.80;90.40;;;;;;2105346;28;20107;-70
2022/08/13 01:05:48;;;;;;;5.28;4.78;;;17.80;90.40;;;;;;2105275;28;20036;-70
2022/08/13 01:06:49;;;;;;;5.70;5.20;;;17.80;90.50;;;;;;2106148;28;20023;-70
2022/08/13 01:07:51;;;;;;;6.07;5.30;;;17.80;90.60;;;;;;2105158;28;20406;-72
2022/08/13 01:08:53;;;;;;;5.60;5.10;;;17.80;90.70;;;;;;2105273;28;20597;-71
2022/08/13 01:09:54;;;;;;;6.72;5.20;;;17.80;90.80;;;;;;2105362;28;20030;-70
2022/08/13 01:10:56;;;;;;;5.60;5.10;;;17.80;90.90;;;;;;2105157;28;20051;-70
2022/08/13 01:11:59;;;;;;;5.65;5.15;;;17.80;91.30;;;;;;2105520;28;20059;-70
2022/08/13 01:13:00;;;;;;;5.80;5.20;;;17.80;91.00;;;;;;2105168;28;20104;-70
2022/08/13 01:14:07;;;;;;;5.47;4.97;;;17.70;91.10;;;;;;2105796;28;20043;-70
2022/08/13 01:15:23;;;;;;;6.00;5.40;;;17.70;91.20;;;;;;2105968;28;20037;-70
2022/08/13 01:16:27;;;;;;;7.40;5.25;;;17.70;91.20;;;;;;2105677;28;20016;-70
2022/08/13 01:17:28;;;;;;;5.80;5.30;;;17.70;91.30;;;;;;2105544;28;20135;-69
2022/08/13 01:18:31;;;;;;;6.15;5.40;;;17.70;91.40;;;;;;2105279;28;20065;-70
2022/08/13 01:19:33;;;;;;;7.80;5.88;;;17.70;92.10;;;;;;2104783;28;20051;-69
2022/08/13 01:20:44;;;;;;;6.53;5.82;;;17.70;92.50;;;;;;2104935;28;20028;-71
2022/08/13 01:21:49;;;;;;;7.88;5.93;;;17.70;93.20;;;;;;2105160;28;20512;-70
2022/08/13 01:22:55;;;;;;;6.70;6.10;;;17.70;93.90;;;;;;2104950;28;20370;-69
2022/08/13 01:23:55;;;;;;;6.82;6.13;;;17.70;94.50;;;;;;2105020;28;20443;-69
2022/08/13 01:24:56;;;;;;;8.80;6.20;;;17.70;94.90;;;;;;2104528;28;20028;-69
2022/08/13 01:25:59;;;;;;;7.95;6.15;;;17.70;95.60;;;;;;2105014;28;20053;-70
2022/08/13 01:26:59;;;;;;;9.70;5.95;;;17.70;96.10;;;;;;2104829;28;20740;-69
2022/08/13 01:28:01;;;;;;;6.75;6.00;;;17.60;96.50;;;;;;2104847;28;20054;-71
2022/08/13 01:29:05;;;;;;;7.65;5.93;;;17.60;97.00;;;;;;2104857;28;20055;-71
2022/08/13 01:30:09;;;;;;;6.78;6.00;;;17.60;97.30;;;;;;2104817;28;20086;-71
2022/08/13 01:31:11;;;;;;;6.47;5.57;;;17.60;97.20;;;;;;2106911;28;20055;-70
2022/08/13 01:32:15;;;;;;;6.88;5.80;;;17.60;97.30;;;;;;2106725;28;20028;-70
2022/08/13 01:33:17;;;;;;;7.22;5.50;;;17.50;96.70;;;;;;2106935;28;20039;-70
2022/08/13 01:34:18;;;;;;;7.10;5.47;;;17.50;96.20;;;;;;2105069;28;20028;-70
2022/08/13 01:35:20;;;;;;;6.10;5.60;;;17.50;95.70;;;;;;2104609;28;20028;-69
2022/08/13 01:36:21;;;;;;;6.13;5.53;;;17.40;95.50;;;;;;2104925;28;20550;-70
2022/08/13 01:37:22;;;;;;;6.43;5.78;;;17.40;95.20;;;;;;2104892;28;20375;-70
2022/08/13 01:38:23;;;;;;;8.27;5.60;;;17.40;94.80;;;;;;2104636;28;20050;-70
2022/08/13 01:39:26;;;;;;;5.85;5.32;;;17.40;94.70;;;;;;2104299;28;20035;-72
2022/08/13 01:40:27;;;;;;;6.13;5.53;;;17.40;94.70;;;;;;2104348;28;20470;-71
2022/08/13 01:41:28;;;;;;;6.68;5.50;;;17.30;94.60;;;;;;2104802;28;20039;-70
2022/08/13 01:42:29;;;;;;;5.80;5.20;;;17.30;94.60;;;;;;2107324;28;20090;-70
2022/08/13 01:43:34;;;;;;;6.00;5.40;;;17.30;94.50;;;;;;2107835;28;20025;-69
2022/08/13 01:44:36;;;;;;;6.22;5.43;;;17.30;94.50;;;;;;2107566;28;20163;-70
2022/08/13 01:45:37;;;;;;;6.10;5.50;;;17.30;94.50;;;;;;2107535;28;20032;-70
2022/08/13 01:50:42;;;;;;;6.32;5.78;;;17.20;94.50;;;;;;2097994;28;20122;-69
2022/08/13 01:51:43;;;;;;;6.00;5.47;;;17.20;94.70;;;;;;2106922;28;20027;-70
2022/08/13 01:52:45;;;;;;;6.07;5.57;;;17.20;94.80;;;;;;2107492;28;20024;-70
2022/08/13 01:53:46;;;;;;;6.35;5.45;;;17.20;95.10;;;;;;2107571;28;20071;-70
2022/08/13 01:54:47;;;;;;;6.60;5.90;;;17.10;95.10;;;;;;2107397;28;20020;-70
2022/08/13 01:55:53;;;;;;;7.40;5.68;;;17.20;94.80;;;;;;2107575;28;20026;-70
2022/08/13 01:56:53;;;;;;;6.45;5.85;;;17.20;94.90;;;;;;2107526;28;20513;-71
2022/08/13 01:57:54;;;;;;;6.18;5.50;;;17.20;94.90;;;;;;2107477;28;20020;-70
2022/08/13 01:58:58;;;;;;;5.63;5.10;;;17.10;94.90;;;;;;2107627;28;20023;-70
2022/08/13 02:00:01;;;;;;;6.35;5.75;;;17.10;94.90;;;;;;2107609;28;20028;-70
2022/08/13 02:01:07;;;;;;;6.72;5.53;;;17.10;94.90;;;;;;2108267;28;20430;-70
2022/08/13 02:02:10;;;;;;;6.30;5.70;;;17.10;95.00;;;;;;2109221;28;20023;-71
2022/08/13 02:03:25;;;;;;;6.00;5.50;;;17.10;95.10;;;;;;2107826;28;20486;-70
2022/08/13 02:04:39;;;;;;;5.68;5.22;;;17.10;95.10;;;;;;2109809;28;20035;-70
2022/08/13 02:05:40;;;;;;;6.05;5.55;;;17.10;95.20;;;;;;2108282;28;20044;-71
2022/08/13 02:06:41;;;;;;;6.45;5.53;;;17.10;95.20;;;;;;2108983;28;20063;-71
2022/08/13 02:07:43;;;;;;;5.93;5.38;;;17.10;95.30;;;;;;2108570;28;20070;-70
2022/08/13 02:08:50;;;;;;;6.20;5.60;;;17.10;95.30;;;;;;2107603;28;20470;-69
2022/08/13 02:09:54;;;;;;;6.50;5.43;;;17.10;95.40;;;;;;2107820;28;20123;-69
2022/08/13 02:11:03;;;;;;;5.90;5.40;;;17.10;95.70;;;;;;2099567;28;20032;-70
2022/08/13 02:12:09;;;;;;;6.13;5.60;;;17.10;95.60;;;;;;2109137;28;20020;-70
2022/08/13 02:13:16;;;;;;;6.32;5.70;;;17.10;95.60;;;;;;2108248;28;20093;-70
2022/08/13 02:14:17;;;;;;;6.07;5.57;;;17.00;95.60;;;;;;2108459;28;20062;-70
2022/08/13 02:15:18;;;;;;;5.95;5.45;;;17.00;95.70;;;;;;2108472;28;20660;-70
2022/08/13 02:16:19;;;;;;;6.20;5.38;;;17.10;95.80;;;;;;2108959;28;20016;-70
2022/08/13 02:17:27;;;;;;;5.95;5.45;;;17.00;95.80;;;;;;2108772;28;20028;-71
2022/08/13 02:18:28;;;;;;;6.65;5.60;;;17.00;95.80;;;;;;2108012;28;20078;-71
2022/08/13 02:19:29;;;;;;;6.38;5.70;;;17.00;95.90;;;;;;2107849;28;20565;-71
2022/08/13 02:20:35;;;;;;;6.43;5.85;;;17.00;95.90;;;;;;2108107;28;20103;-70
2022/08/13 02:21:38;;;;;;;6.30;5.65;;;17.10;96.00;;;;;;2107176;28;20485;-70
2022/08/13 02:22:39;;;;;;;7.30;5.50;;;17.10;96.10;;;;;;2106897;28;20027;-70
2022/08/13 02:23:40;;;;;;;7.47;5.68;;;17.00;96.10;;;;;;2107453;28;20049;-71
2022/08/13 02:24:47;;;;;;;6.38;5.78;;;17.00;96.20;;;;;;2107373;28;20040;-71
2022/08/13 02:25:50;;;;;;;5.90;5.38;;;17.00;96.60;;;;;;2107506;28;20024;-71
2022/08/13 02:26:51;;;;;;;6.32;5.80;;;17.00;96.30;;;;;;2107509;28;20032;-71
2022/08/13 02:27:55;;;;;;;5.90;5.32;;;17.00;96.40;;;;;;2107258;28;20107;-70
2022/08/13 02:28:59;;;;;;;7.32;5.63;;;17.00;96.40;;;;;;2107292;28;20024;-71
2022/08/13 02:30:00;;;;;;;6.20;5.60;;;16.90;96.40;;;;;;2106526;28;20502;-71
2022/08/13 02:31:00;;;;;;;6.65;5.75;;;16.90;96.50;;;;;;2106694;28;20020;-71
2022/08/13 02:32:01;;;;;;;6.22;5.60;;;16.90;96.60;;;;;;2107289;28;20476;-71
2022/08/13 02:33:05;;;;;;;8.60;5.70;;;16.90;96.70;;;;;;2107291;28;20039;-70
2022/08/13 02:34:06;;;;;;;6.10;5.50;;;16.90;96.80;;;;;;2106764;28;20040;-71
2022/08/13 02:35:08;;;;;;;7.03;6.32;;;16.90;96.90;;;;;;2106710;28;20044;-70
2022/08/13 02:36:10;;;;;;;6.60;5.93;;;16.90;97.00;;;;;;2107395;28;20024;-72
2022/08/13 02:37:13;;;;;;;6.60;6.00;;;16.90;97.00;;;;;;2106853;28;20526;-70
2022/08/13 02:38:16;;;;;;;6.25;5.63;;;16.90;97.00;;;;;;2106800;28;20050;-70
2022/08/13 02:39:16;;;;;;;6.00;5.40;;;16.90;97.00;;;;;;2107173;28;20030;-71
2022/08/13 02:41:43;;;;;;;6.10;5.53;;;16.90;97.10;;;;;;2107331;28;20043;-70
2022/08/13 02:42:43;;;;;;;5.90;5.40;;;16.90;97.10;;;;;;2107489;28;20020;-70
2022/08/13 02:43:46;;;;;;;8.23;5.65;;;16.90;97.20;;;;;;2107563;28;20653;-69
2022/08/13 02:44:49;;;;;;;6.47;5.75;;;16.90;97.30;;;;;;2107146;28;20117;-70
2022/08/13 02:45:50;;;;;;;9.25;7.97;;;16.90;97.30;;;;;;2107315;28;20479;-70
2022/08/13 02:46:51;;;;;;;8.88;7.90;;;16.80;97.50;;;;;;2107489;28;20024;-70
2022/08/13 02:47:53;;;;;;;7.75;6.95;;;16.90;97.60;;;;;;2106642;28;20024;-70
2022/08/13 02:48:57;;;;;;;7.03;6.38;;;16.80;97.70;;;;;;2106405;28;20600;-70
2022/08/13 02:49:59;;;;;;;6.32;5.82;;;16.80;97.70;;;;;;2107509;28;20027;-70
2022/08/13 02:50:59;;;;;;;6.60;5.90;;;16.80;97.90;;;;;;2106568;28;20056;-71
2022/08/13 02:52:01;;;;;;;6.03;5.53;;;16.80;98.00;;;;;;2112226;28;20030;-70
2022/08/13 02:53:01;;;;;;;6.25;5.50;;;16.80;98.10;;;;;;2117032;28;20012;-71
2022/08/13 02:54:02;;;;;;;6.22;5.63;;;16.80;98.20;;;;;;2115782;28;20023;-70
2022/08/13 02:55:04;;;;;;;5.85;5.35;;;16.70;98.20;;;;;;2116997;28;20035;-70
2022/08/13 02:56:08;;;;;;;8.32;5.53;;;16.70;98.30;;;;;;2117509;28;20043;-70
2022/08/13 02:57:10;;;;;;;5.82;5.22;;;16.80;98.40;;;;;;2117030;28;20534;-70
2022/08/13 02:58:10;;;;;;;5.65;5.15;;;16.80;98.40;;;;;;2117129;28;20019;-70
2022/08/13 02:59:11;;;;;;;6.07;5.45;;;16.80;98.60;;;;;;2117559;28;20083;-70
2022/08/13 03:00:13;;;;;;;6.22;5.72;;;16.70;98.50;;;;;;2112337;28;20153;-70
2022/08/13 03:01:15;;;;;;;5.80;5.30;;;16.70;98.60;;;;;;2106686;28;20039;-70
2022/08/13 03:02:17;;;;;;;6.05;5.45;;;16.70;98.70;;;;;;2106516;28;20029;-71
2022/08/13 03:03:19;;;;;;;5.97;5.30;;;16.70;98.80;;;;;;2106312;28;20656;-72
2022/08/13 03:04:19;;;;;;;6.55;5.45;;;16.70;99.20;;;;;;2106222;28;20032;-72
2022/08/13 03:05:20;;;;;;;5.68;5.18;;;16.70;99.00;;;;;;2105971;28;20657;-70
2022/08/13 03:06:22;;;;;;;7.70;5.63;;;16.70;99.10;;;;;;2106172;28;20418;-70
2022/08/13 03:07:26;;;;;;;5.97;5.47;;;16.70;99.20;;;;;;2105542;28;20031;-70
2022/08/13 03:08:28;;;;;;;5.80;5.30;;;16.60;99.20;;;;;;2105420;28;20032;-70
2022/08/13 03:09:29;;;;;;;6.20;5.60;;;16.70;99.30;;;;;;2106276;28;20473;-70
2022/08/13 03:10:30;;;;;;;7.10;5.40;;;16.70;99.30;;;;;;2105455;28;20036;-70
2022/08/13 03:11:32;;;;;;;5.90;5.40;;;16.60;99.40;;;;;;2105492;28;20095;-69
2022/08/13 03:12:33;;;;;;;6.03;5.43;;;16.60;99.50;;;;;;2106245;28;20024;-70
2022/08/13 03:13:36;;;;;;;9.02;5.80;;;16.60;99.90;;;;;;2106162;28;20074;-69
2022/08/13 03:14:38;;;;;;;5.72;5.22;;;16.70;99.70;;;;;;2105878;28;20032;-69
2022/08/13 03:15:39;;;;;;;6.97;5.45;;;16.70;99.70;;;;;;2105449;28;20020;-69
2022/08/13 03:16:40;;;;;;;6.15;5.55;;;16.60;99.80;;;;;;2105271;28;20425;-69
2022/08/13 03:17:42;;;;;;;6.45;5.60;;;16.60;99.90;;;;;;2105954;28;20032;-70
2022/08/13 03:18:42;;;;;;;5.80;5.30;;;16.60;99.90;;;;;;2105050;28;20032;-69
2022/08/13 03:19:43;;;;;;;5.80;5.30;;;16.60;99.90;;;;;;2105246;28;20020;-69
2022/08/13 03:20:43;;;;;;;6.68;5.47;;;16.60;99.90;;;;;;2105234;28;20544;-69
2022/08/13 03:21:44;;;;;;;6.28;5.68;;;16.60;99.90;;;;;;2105172;28;20027;-69
2022/08/13 03:22:53;;;;;;;6.28;5.72;;;16.60;99.90;;;;;;2106199;28;20055;-73
2022/08/13 03:23:53;;;;;;;6.10;5.50;;;16.60;99.90;;;;;;2106131;28;20024;-70
2022/08/13 03:24:54;;;;;;;6.70;6.10;;;16.60;99.90;;;;;;2104874;28;20063;-70
2022/08/13 03:25:55;;;;;;;7.28;6.15;;;16.60;99.90;;;;;;2105026;28;20107;-72
2022/08/13 03:27:01;;;;;;;7.53;6.53;;;16.60;99.90;;;;;;2105864;28;20020;-71
2022/08/13 03:28:03;;;;;;;7.55;6.85;;;16.50;99.90;;;;;;2105553;28;20108;-70
2022/08/13 03:29:06;;;;;;;7.70;6.60;;;16.60;99.90;;;;;;2105635;28;20040;-70
2022/08/13 03:30:09;;;;;;;8.65;6.30;;;16.60;99.90;;;;;;2105877;28;20022;-70
2022/08/13 03:31:10;;;;;;;7.68;6.88;;;16.50;99.90;;;;;;2105830;28;20646;-70
2022/08/13 03:32:13;;;;;;;6.78;6.07;;;16.50;99.90;;;;;;2105781;28;20020;-70
2022/08/13 03:33:13;;;;;;;8.63;6.60;;;16.50;99.90;;;;;;2105728;28;20081;-70
2022/08/13 03:34:17;;;;;;;7.40;5.97;;;16.50;99.90;;;;;;2105816;28;20036;-70
2022/08/13 03:35:22;;;;;;;6.47;5.70;;;16.50;99.90;;;;;;2105394;28;20100;-71
2022/08/13 03:36:24;;;;;;;6.20;5.60;;;16.50;99.90;;;;;;2105816;28;20117;-70
2022/08/13 03:37:25;;;;;;;6.50;5.90;;;16.50;99.90;;;;;;2105598;28;20031;-70
2022/08/13 03:38:26;;;;;;;6.60;5.90;;;16.50;99.90;;;;;;2105734;28;20070;-70
2022/08/13 03:39:29;;;;;;;6.57;5.95;;;16.40;99.90;;;;;;2105812;28;20105;-71
2022/08/13 03:41:00;;;;;;;6.15;5.60;;;16.40;99.90;;;;;;2105653;28;20078;-69
2022/08/13 03:41:50;;;;;;;6.50;5.72;;;16.40;99.90;;;;;;2105881;28;20166;-70
2022/08/13 03:42:52;;;;;;;6.90;6.30;;;16.40;99.90;;;;;;2105730;28;20024;-71
2022/08/13 03:43:54;;;;;;;6.43;5.93;;;16.40;99.90;;;;;;2105487;28;20047;-71
2022/08/13 03:44:55;;;;;;;6.35;5.75;;;16.40;99.90;;;;;;2105401;28;20024;-71
2022/08/13 03:45:57;;;;;;;7.43;6.05;;;16.40;99.90;;;;;;2105782;28;20031;-71
2022/08/13 03:46:58;;;;;;;6.38;5.88;;;16.40;99.90;;;;;;2105102;28;20035;-70
2022/08/13 03:48:00;;;;;;;6.47;5.88;;;16.40;99.90;;;;;;2105387;28;20098;-71
2022/08/13 03:49:00;;;;;;;7.28;6.25;;;16.40;99.90;;;;;;2105394;28;20817;-71
2022/08/13 03:50:04;;;;;;;7.50;6.03;;;16.40;99.90;;;;;;2105603;28;20035;-71
2022/08/13 03:51:08;;;;;;;6.78;6.10;;;16.40;99.90;;;;;;2105487;28;20122;-71
2022/08/13 03:52:09;;;;;;;6.63;6.03;;;16.40;99.90;;;;;;2105474;28;20023;-71
2022/08/13 03:53:10;;;;;;;8.20;5.95;;;16.40;99.90;;;;;;2105488;28;20052;-71
2022/08/13 03:54:12;;;;;;;7.47;5.75;;;16.40;99.90;;;;;;2105022;28;20056;-71
2022/08/13 03:55:15;;;;;;;7.40;6.70;;;16.40;99.90;;;;;;2104580;28;20124;-70
2022/08/13 03:56:17;;;;;;;6.70;6.00;;;16.40;99.90;;;;;;2104983;28;20147;-70
2022/08/13 03:57:19;;;;;;;6.40;5.90;;;16.40;99.90;;;;;;2105078;28;20051;-71
2022/08/13 03:58:21;;;;;;;8.13;6.45;;;16.40;99.90;;;;;;2096374;28;20106;-71
2022/08/13 03:59:22;;;;;;;6.80;6.10;;;16.40;99.90;;;;;;2105261;28;20028;-71
2022/08/13 04:00:28;;;;;;;7.75;6.35;;;16.40;99.90;;;;;;2106079;28;20158;-70
2022/08/13 04:01:30;;;;;;;6.60;6.00;;;16.40;99.90;;;;;;2105855;28;20032;-70
2022/08/13 04:02:32;;;;;;;6.72;6.13;;;16.40;99.90;;;;;;2105921;28;20044;-71
2022/08/13 04:03:40;;;;;;;6.72;6.13;;;16.40;99.90;;;;;;2106186;28;20075;-71
2022/08/13 04:04:46;;;;;;;6.75;6.05;;;16.40;99.90;;;;;;2104580;28;20044;-71
2022/08/13 04:05:54;;;;;;;6.50;6.00;;;16.40;99.90;;;;;;2104008;28;20424;-71
2022/08/13 04:06:55;;;;;;;6.85;5.85;;;16.40;99.90;;;;;;2105735;28;20028;-70
2022/08/13 04:07:56;;;;;;;6.93;6.20;;;16.40;99.90;;;;;;2105699;28;20530;-71
2022/08/13 04:09:02;;;;;;;6.70;6.10;;;16.40;99.90;;;;;;2104926;28;20028;-71
2022/08/13 04:10:04;;;;;;;6.63;5.97;;;16.40;99.90;;;;;;2105101;28;20043;-70
2022/08/13 04:11:10;;;;;;;7.00;6.35;;;16.40;99.90;;;;;;2104812;28;20035;-70
2022/08/13 04:12:12;;;;;;;6.97;6.38;;;16.40;99.90;;;;;;2105110;28;20036;-70
2022/08/13 04:13:16;;;;;;;6.53;5.97;;;16.40;99.90;;;;;;2105387;28;20449;-70
2022/08/13 04:14:17;;;;;;;6.53;5.93;;;16.50;99.90;;;;;;2105527;28;20027;-70
2022/08/13 04:15:17;;;;;;;6.90;6.30;;;16.50;99.90;;;;;;2105064;28;20028;-70
2022/08/13 04:16:22;;;;;;;6.75;6.10;;;16.50;99.90;;;;;;2105787;28;20032;-70
2022/08/13 04:17:22;;;;;;;7.20;6.00;;;16.50;99.90;;;;;;2105560;28;20024;-71
2022/08/13 04:18:23;;;;;;;6.57;5.90;;;16.60;99.90;;;;;;2104719;28;20086;-70
2022/08/13 04:19:26;;;;;;;6.32;5.78;;;16.60;99.90;;;;;;2104736;28;20415;-70
2022/08/13 04:20:27;;;;;;;6.50;5.90;;;16.60;99.90;;;;;;2105525;28;20027;-71
2022/08/13 04:21:31;;;;;;;6.53;5.93;;;16.70;99.90;;;;;;2105515;28;20032;-70
2022/08/13 04:22:33;;;;;;;6.90;6.30;;;16.70;99.90;;;;;;2105427;28;20032;-71
2022/08/13 04:23:38;;;;;;;6.68;6.07;;;16.70;99.90;;;;;;2104812;28;20028;-70
2022/08/13 04:24:39;;;;;;;6.70;6.10;;;16.80;99.90;;;;;;2104564;28;20051;-71
2022/08/13 04:25:41;;;;;;;6.57;5.97;;;16.80;99.90;;;;;;2105201;28;20676;-70
2022/08/13 04:26:43;;;;;;;6.38;5.80;;;16.80;99.90;;;;;;2105208;28;20027;-70
2022/08/13 04:27:44;;;;;;;6.68;5.90;;;16.80;99.90;;;;;;2104999;28;20027;-71
2022/08/13 04:28:45;;;;;;;6.78;6.18;;;16.80;99.90;;;;;;2105196;28;20020;-70
2022/08/13 04:29:45;;;;;;;6.95;6.25;;;16.90;99.90;;;;;;2105306;28;20024;-70
2022/08/13 04:30:46;;;;;;;6.75;6.15;;;16.90;99.90;;;;;;2105058;28;20039;-70
2022/08/13 04:31:47;;;;;;;6.53;5.88;;;16.90;99.90;;;;;;2104912;28;20046;-71
2022/08/13 04:32:48;;;;;;;6.70;5.80;;;16.90;99.90;;;;;;2105267;28;20031;-70
2022/08/13 04:33:49;;;;;;;7.90;5.90;;;16.90;99.90;;;;;;2104769;28;20515;-70
2022/08/13 04:34:51;;;;;;;7.68;6.25;;;16.90;99.90;;;;;;2104863;28;20115;-70
2022/08/13 04:35:51;;;;;;;7.68;6.30;;;16.90;99.90;;;;;;2096103;28;20132;-70
2022/08/13 04:36:52;;;;;;;6.63;6.03;;;16.90;99.90;;;;;;2096165;28;20462;-71
2022/08/13 04:37:56;;;;;;;7.30;6.15;;;17.00;99.90;;;;;;2104738;28;20031;-71
2022/08/13 04:38:57;;;;;;;6.75;6.05;;;17.00;99.90;;;;;;2105118;28;20046;-70
2022/08/13 04:39:57;;;;;;;6.50;5.90;;;17.00;99.90;;;;;;2104363;28;20497;-70
2022/08/13 04:40:58;;;;;;;6.50;5.95;;;17.10;99.90;;;;;;2104682;28;20039;-70
2022/08/13 04:42:00;;;;;;;6.32;5.70;;;17.10;99.90;;;;;;2105195;28;20118;-71
2022/08/13 04:43:01;;;;;;;6.90;6.22;;;17.10;99.90;;;;;;2105018;28;20020;-70
2022/08/13 04:44:02;;;;;;;6.45;5.88;;;17.20;99.90;;;;;;2105186;28;20731;-71
2022/08/13 04:45:05;;;;;;;7.50;6.70;;;17.20;99.90;;;;;;2104663;28;20036;-70
2022/08/13 04:46:06;;;;;;;6.60;6.00;;;17.30;99.70;;;;;;2104994;28;20023;-70
2022/08/13 04:47:06;;;;;;;7.00;6.40;;;17.40;99.40;;;;;;2104944;28;20470;-70
2022/08/13 04:48:10;;;;;;;6.68;6.07;;;17.40;99.10;;;;;;2104842;28;20048;-70
2022/08/13 04:49:12;;;;;;;6.85;6.13;;;17.50;98.90;;;;;;2105032;28;20035;-70
2022/08/13 04:50:14;;;;;;;6.53;5.93;;;17.50;98.60;;;;;;2104925;28;20123;-71
2022/08/13 04:51:15;;;;;;;7.72;6.60;;;17.60;98.30;;;;;;2104970;28;20028;-71
2022/08/13 04:52:15;;;;;;;6.30;5.70;;;17.70;98.00;;;;;;2104967;28;20035;-70
2022/08/13 04:53:35;;;;;;;7.72;5.70;;;17.80;97.60;;;;;;2105112;28;20028;-70
2022/08/13 04:54:36;;;;;;;6.35;5.75;;;17.90;97.20;;;;;;2105340;28;20101;-70
2022/08/13 04:55:37;;;;;;;6.57;5.78;;;18.00;97.00;;;;;;2104904;28;20173;-70
2022/08/13 04:56:38;;;;;;;6.32;5.78;;;18.00;96.80;;;;;;2105021;28;20032;-71
2022/08/13 04:57:41;;;;;;;6.32;5.72;;;18.10;96.50;;;;;;2105195;28;20049;-71
2022/08/13 04:58:41;;;;;;;6.50;5.90;;;18.10;96.30;;;;;;2104927;28;20091;-71
2022/08/13 04:59:44;;;;;;;6.85;5.88;;;18.20;96.10;;;;;;2105244;28;20031;-71
2022/08/13 05:00:45;;;;;;;6.20;5.70;;;18.20;96.20;;;;;;2105340;28;20517;-70
2022/08/13 05:01:46;;;;;;;6.30;5.70;;;18.30;95.80;;;;;;2104979;28;20032;-70
2022/08/13 05:02:47;;;;;;;6.57;5.60;;;18.40;95.60;;;;;;2104242;28;20024;-71
2022/08/13 05:03:48;;;;;;;6.35;5.65;;;18.50;95.30;;;;;;2104278;28;20067;-70
2022/08/13 05:04:48;;;;;;;6.38;5.78;;;18.60;95.00;;;;;;2103984;28;20108;-70
2022/08/13 05:05:51;;;;;;;6.35;5.75;;;18.70;94.70;;;;;;2104358;28;20533;-70
2022/08/13 05:06:52;;;;;;;6.18;5.53;;;18.90;94.30;;;;;;2104913;28;20150;-72
2022/08/13 05:07:53;;;;;;;6.15;5.55;;;19.00;93.90;;;;;;2104965;28;20050;-71
2022/08/13 05:08:55;;;;;;;6.28;5.68;;;19.10;93.30;;;;;;2104995;28;20028;-71
2022/08/13 05:09:56;;;;;;;6.60;5.53;;;19.30;92.90;;;;;;2105068;28;20089;-69
2022/08/13 05:10:56;;;;;;;6.10;5.53;;;19.50;92.40;;;;;;2104969;28;20036;-70
2022/08/13 05:11:58;;;;;;;6.25;5.63;;;19.70;91.90;;;;;;2104908;28;20066;-69
2022/08/13 05:13:02;;;;;;;5.78;5.28;;;19.80;91.40;;;;;;2104403;28;20074;-69
2022/08/13 05:14:04;;;;;;;6.00;5.40;;;19.90;91.10;;;;;;2104133;28;20072;-69
2022/08/13 05:15:06;;;;;;;6.53;5.80;;;20.10;90.80;;;;;;2103919;28;20127;-70
2022/08/13 05:16:08;;;;;;;6.22;5.53;;;20.20;90.30;;;;;;2104210;28;20034;-71
2022/08/13 05:17:08;;;;;;;6.00;5.45;;;20.30;90.00;;;;;;2104550;28;20030;-71
2022/08/13 05:18:09;;;;;;;5.75;5.25;;;20.40;89.30;;;;;;2104725;28;20043;-70
2022/08/13 05:19:10;;;;;;;5.93;5.32;;;20.60;88.60;;;;;;2104874;28;20032;-71
2022/08/13 05:20:13;;;;;;;6.95;5.30;;;20.60;87.70;;;;;;2104263;28;20070;-70
2022/08/13 05:21:14;;;;;;;6.47;5.40;;;20.70;87.30;;;;;;2104208;28;20020;-70
2022/08/13 05:22:15;;;;;;;7.30;5.40;;;20.80;86.80;;;;;;2104337;28;20024;-70
2022/08/13 05:23:15;;;;;;;6.82;5.88;;;20.90;86.40;;;;;;2104145;28;20502;-71
2022/08/13 05:24:16;;;;;;;7.00;5.28;;;20.90;86.10;;;;;;2104737;28;20055;-70
2022/08/13 05:25:17;;;;;;;6.18;5.57;;;21.00;85.70;;;;;;2104503;28;20024;-70
2022/08/13 05:26:18;;;;;;;6.40;5.70;;;21.00;85.10;;;;;;2104924;28;20072;-70
2022/08/13 05:27:19;;;;;;;6.95;5.60;;;21.10;84.70;;;;;;2104605;28;20032;-70
2022/08/13 05:28:20;;;;;;;6.38;5.60;;;21.10;84.20;;;;;;2104837;28;20028;-70
2022/08/13 05:29:21;;;;;;;6.10;5.47;;;21.20;83.90;;;;;;2104940;28;20028;-70
2022/08/13 05:30:21;;;;;;;6.30;5.70;;;21.20;83.60;;;;;;2104860;28;20482;-70
2022/08/13 05:31:22;;;;;;;5.88;5.38;;;21.30;83.30;;;;;;2104858;28;20050;-69
2022/08/13 05:32:23;;;;;;;10.32;5.50;;;21.40;83.00;;;;;;2105186;28;20024;-69
2022/08/13 05:33:26;;;;;;;6.03;5.43;;;21.50;82.80;;;;;;2105461;28;20562;-69
2022/08/13 05:34:28;;;;;;;6.22;5.57;;;21.50;82.80;;;;;;2105334;28;20035;-69
2022/08/13 05:35:28;;;;;;;5.90;5.30;;;21.50;82.60;;;;;;2105406;28;20116;-69
2022/08/13 05:36:31;;;;;;;6.00;5.40;;;21.60;82.80;;;;;;2105634;28;20024;-69